Time;durP1;ratioP1;P1;durP2;ratioP2;P2;SDS_P1;SDS_P2;PMS_P1;PMS_P2;Temp;Humidity;BMP_temperature;BMP_pressure;BME280_temperature;BME280_humidity;BME280_pressure;Samples;Min_cycle;Max_cycle;Signal;HPM_P1;HPM_P2
2021/08/26 00:06:58;;;;;;;;;24.75;21.00;;;;;19.49;59.19;101643.88;6244048;22;45352;-62
2021/08/26 00:09:24;;;;;;;;;19.75;16.25;;;;;19.46;59.13;101646.81;6243705;22;45476;-62
2021/08/26 00:11:53;;;;;;;;;20.25;17.25;;;;;19.43;59.43;101649.72;6243807;22;45984;-61
2021/08/26 00:14:19;;;;;;;;;22.25;18.75;;;;;19.44;59.23;101646.94;6244043;22;45252;-62
2021/08/26 00:16:45;;;;;;;;;25.25;21.25;;;;;19.42;59.25;101653.34;6244186;22;45248;-62
2021/08/26 00:19:12;;;;;;;;;21.00;18.25;;;;;19.35;59.57;101655.69;6244040;22;45229;-62
2021/08/26 00:21:41;;;;;;;;;17.50;16.75;;;;;19.30;59.85;101649.88;6243970;22;45260;-62
2021/08/26 00:24:07;;;;;;;;;23.75;19.00;;;;;19.27;59.44;101649.28;6243864;22;45279;-61
2021/08/26 00:26:33;;;;;;;;;23.25;19.50;;;;;19.24;59.67;101648.56;6243949;22;45362;-61
2021/08/26 00:29:03;;;;;;;;;20.75;17.75;;;;;19.20;59.93;101651.63;6244067;22;45330;-61
2021/08/26 00:31:29;;;;;;;;;18.00;17.50;;;;;19.16;60.12;101650.16;6243591;22;45274;-62
2021/08/26 00:33:55;;;;;;;;;20.50;15.00;;;;;19.12;60.36;101652.22;6243652;22;45295;-61
2021/08/26 00:36:21;;;;;;;;;17.25;15.25;;;;;19.11;60.01;101655.00;6243728;22;45249;-61
2021/08/26 00:38:47;;;;;;;;;17.25;13.00;;;;;19.00;60.01;101647.03;6244050;22;45364;-62
2021/08/26 00:41:27;;;;;;;;;15.00;15.00;;;;;18.92;60.39;101645.81;6243991;22;45287;-62
2021/08/26 00:43:52;;;;;;;;;15.00;14.25;;;;;18.89;60.83;101646.06;6243949;22;45236;-62
2021/08/26 00:46:18;;;;;;;;;14.75;13.25;;;;;18.86;60.96;101648.97;6243912;22;45185;-62
2021/08/26 00:48:44;;;;;;;;;18.50;14.50;;;;;18.83;60.58;101645.69;6243694;22;45210;-62
2021/08/26 00:51:11;;;;;;;;;13.00;12.00;;;;;18.79;60.69;101646.91;6243803;22;45904;-62
2021/08/26 00:53:39;;;;;;;;;13.25;12.50;;;;;18.78;60.71;101647.88;6243356;22;45331;-62
2021/08/26 00:56:05;;;;;;;;;14.50;11.50;;;;;18.77;60.75;101643.50;6244088;22;45233;-62
2021/08/26 00:58:31;;;;;;;;;11.25;10.00;;;;;18.76;60.69;101644.50;6243795;22;45251;-62
2021/08/26 01:01:03;;;;;;;;;10.25;10.25;;;;;18.76;60.88;101636.47;6243883;22;46056;-63
2021/08/26 01:03:58;;;;;;;;;11.50;10.75;;;;;18.73;60.93;101631.41;6243286;22;45281;-63
2021/08/26 01:06:41;;;;;;;;;12.00;12.00;;;;;18.72;60.62;101630.53;6243566;22;45244;-62
2021/08/26 01:09:13;;;;;;;;;13.00;10.25;;;;;18.74;60.69;101631.28;6243735;22;45242;-62
2021/08/26 01:11:42;;;;;;;;;11.00;10.75;;;;;18.73;60.94;101629.56;6241974;22;45425;-62
2021/08/26 01:14:11;;;;;;;;;9.50;9.00;;;;;18.74;60.60;101627.75;6242936;22;45295;-61
2021/08/26 01:16:38;;;;;;;;;10.00;9.75;;;;;18.74;60.81;101622.41;6243512;22;45123;-62
2021/08/26 01:19:04;;;;;;;;;10.25;9.25;;;;;18.77;60.82;101627.50;6266862;22;45469;-62
2021/08/26 01:21:30;;;;;;;;;9.00;9.00;;;;;18.75;60.59;101626.78;6243647;22;46059;-62
2021/08/26 01:23:58;;;;;;;;;8.50;8.00;;;;;18.78;60.93;101630.03;6243381;22;45353;-62
2021/08/26 01:26:30;;;;;;;;;10.75;9.00;;;;;18.80;60.75;101625.44;6243613;22;45244;-62
2021/08/26 01:28:58;;;;;;;;;11.50;10.75;;;;;18.82;60.82;101622.66;6243318;22;45472;-63
2021/08/26 01:31:24;;;;;;;;;11.25;8.75;;;;;18.83;60.51;101622.53;6243401;22;45270;-63
2021/08/26 01:33:51;;;;;;;;;9.25;9.00;;;;;18.83;60.29;101619.00;6242984;22;45248;-62
2021/08/26 01:36:17;;;;;;;;;9.00;8.75;;;;;18.80;60.75;101612.09;6243411;22;45235;-62
2021/08/26 01:38:45;;;;;;;;;15.50;12.25;;;;;18.77;60.66;101623.00;6243261;22;45508;-63
2021/08/26 01:41:14;;;;;;;;;7.50;7.00;;;;;18.74;60.60;101611.75;6243428;22;46145;-62
2021/08/26 01:43:43;;;;;;;;;10.75;9.00;;;;;18.73;60.77;101620.72;6242453;22;45238;-63
2021/08/26 01:46:09;;;;;;;;;11.00;10.00;;;;;18.68;60.95;101611.25;6243467;22;45399;-63
2021/08/26 01:48:34;;;;;;;;;13.75;10.00;;;;;18.69;60.91;101622.75;6243037;22;45360;-62
2021/08/26 01:51:00;;;;;;;;;10.00;9.00;;;;;18.66;61.04;101623.03;6243148;22;45977;-62
2021/08/26 01:53:25;;;;;;;;;11.00;10.50;;;;;18.65;61.20;101621.28;6241985;22;45185;-62
2021/08/26 01:55:51;;;;;;;;;14.75;10.50;;;;;18.66;61.26;101618.53;6241666;22;45263;-63
2021/08/26 01:58:16;;;;;;;;;12.75;11.25;;;;;18.61;61.35;101619.81;6241557;22;45443;-62
2021/08/26 02:00:42;;;;;;;;;15.00;11.50;;;;;18.55;61.35;101606.97;6241004;22;46127;-62
2021/08/26 02:03:08;;;;;;;;;11.00;10.25;;;;;18.52;61.60;101609.88;6241687;22;45378;-62
2021/08/26 02:05:34;;;;;;;;;10.25;10.00;;;;;18.49;61.62;101620.81;6242915;22;45286;-62
2021/08/26 02:07:59;;;;;;;;;9.75;9.75;;;;;18.49;61.86;101615.47;6242957;22;45219;-63
2021/08/26 02:10:24;;;;;;;;;11.75;10.25;;;;;18.49;61.67;101616.31;6243354;22;45255;-63
2021/08/26 02:12:51;;;;;;;;;11.75;10.25;;;;;18.45;61.65;101614.84;6242520;22;45213;-63
2021/08/26 02:15:17;;;;;;;;;10.00;10.00;;;;;18.35;61.80;101605.88;6243542;22;45248;-62
2021/08/26 02:17:43;;;;;;;;;13.00;11.75;;;;;18.35;62.02;101611.22;6243526;22;45273;-62
2021/08/26 02:20:09;;;;;;;;;12.25;12.25;;;;;18.30;61.97;101613.38;6242232;22;45834;-62
2021/08/26 02:22:35;;;;;;;;;13.00;11.50;;;;;18.29;62.23;101607.19;6242629;22;45299;-62
2021/08/26 02:25:01;;;;;;;;;10.25;10.25;;;;;18.22;62.04;101613.97;6243199;22;45462;-62
2021/08/26 02:27:26;;;;;;;;;13.00;12.00;;;;;18.22;62.26;101613.13;6243220;22;45314;-62
2021/08/26 02:29:52;;;;;;;;;10.75;10.00;;;;;18.18;62.34;101611.69;6245048;22;45852;-63
2021/08/26 02:32:17;;;;;;;;;9.25;9.25;;;;;18.11;62.22;101609.47;6245038;22;45132;-62
2021/08/26 02:34:43;;;;;;;;;10.25;9.00;;;;;18.10;62.45;101606.94;6244526;22;45291;-62
2021/08/26 02:37:08;;;;;;;;;9.00;8.00;;;;;18.03;62.66;101609.22;6245228;22;45272;-62
2021/08/26 02:39:34;;;;;;;;;12.00;8.50;;;;;18.01;62.80;101611.16;6245131;22;45259;-62
2021/08/26 02:42:01;;;;;;;;;7.25;7.00;;;;;18.00;62.53;101609.44;6244208;22;45285;-62
2021/08/26 02:44:26;;;;;;;;;8.00;7.50;;;;;18.01;62.82;101608.50;6245467;22;45099;-62
2021/08/26 02:46:52;;;;;;;;;6.25;6.00;;;;;18.02;62.69;101610.19;6245286;22;45232;-62
2021/08/26 02:49:17;;;;;;;;;6.00;4.75;;;;;18.01;62.44;101603.16;6244679;22;45579;-62
2021/08/26 02:51:43;;;;;;;;;6.00;5.00;;;;;18.04;62.62;101607.41;6244739;22;45217;-62
2021/08/26 02:54:08;;;;;;;;;5.25;5.00;;;;;18.04;62.46;101602.06;6245069;22;45380;-63
2021/08/26 02:56:34;;;;;;;;;5.25;5.25;;;;;18.03;62.54;101603.03;6244480;22;45370;-62
2021/08/26 02:58:59;;;;;;;;;6.00;4.50;;;;;18.00;62.60;101606.78;6244891;22;45919;-62
2021/08/26 03:01:25;;;;;;;;;6.75;6.00;;;;;17.97;62.56;101604.34;6244666;22;45165;-62
2021/08/26 03:03:50;;;;;;;;;5.25;4.00;;;;;17.93;62.72;101597.56;6244680;22;45195;-62
2021/08/26 03:06:16;;;;;;;;;6.00;5.00;;;;;17.92;62.79;101603.84;6244347;22;45386;-63
2021/08/26 03:08:41;;;;;;;;;3.25;3.25;;;;;17.89;62.78;101598.75;6244398;22;46078;-63
2021/08/26 03:11:09;;;;;;;;;4.00;3.00;;;;;17.89;62.92;101592.56;6244070;22;45321;-62
2021/08/26 03:13:35;;;;;;;;;4.00;3.00;;;;;17.92;62.94;101597.66;6244261;22;45255;-62
2021/08/26 03:16:00;;;;;;;;;4.25;3.75;;;;;17.88;62.68;101596.22;6244723;22;45426;-63
2021/08/26 03:18:26;;;;;;;;;3.00;3.00;;;;;17.82;63.05;101585.03;6244369;22;45939;-63
2021/08/26 03:20:51;;;;;;;;;4.00;4.00;;;;;17.84;63.02;101587.59;6244110;22;45277;-63
2021/08/26 03:23:17;;;;;;;;;5.50;4.00;;;;;17.82;62.99;101585.03;6244544;22;45146;-62
2021/08/26 03:25:44;;;;;;;;;3.75;3.50;;;;;17.80;62.88;101588.81;6244512;22;45149;-62
2021/08/26 03:28:10;;;;;;;;;5.00;3.50;;;;;17.79;63.28;101584.44;6244096;22;45986;-62
2021/08/26 03:30:35;;;;;;;;;3.25;3.00;;;;;17.79;63.06;101576.44;6243617;22;45223;-62
2021/08/26 03:33:00;;;;;;;;;4.00;4.00;;;;;17.80;63.16;101584.31;6244346;22;45201;-62
2021/08/26 03:35:26;;;;;;;;;4.00;2.75;;;;;17.80;63.02;101580.81;6244067;22;45468;-62
2021/08/26 03:37:51;;;;;;;;;3.00;3.00;;;;;17.79;63.05;101584.44;6244458;22;45351;-63
2021/08/26 03:40:17;;;;;;;;;4.00;3.00;;;;;17.80;63.08;101584.31;6244089;22;45297;-62
2021/08/26 03:42:42;;;;;;;;;4.00;2.75;;;;;17.82;62.93;101584.19;6244375;22;45254;-62
2021/08/26 03:45:09;;;;;;;;;2.75;2.75;;;;;17.87;62.98;101583.84;6243840;22;45249;-62
2021/08/26 03:47:34;;;;;;;;;3.00;2.00;;;;;17.88;62.88;101581.06;6244149;22;45468;-63
2021/08/26 03:50:00;;;;;;;;;2.25;2.00;;;;;17.86;62.68;101575.00;6243942;22;45249;-62
2021/08/26 03:52:25;;;;;;;;;5.00;3.25;;;;;17.87;62.69;101584.69;6244175;22;45213;-63
2021/08/26 03:54:51;;;;;;;;;3.75;2.50;;;;;17.89;62.45;101584.59;6244833;22;45262;-62
2021/08/26 03:57:16;;;;;;;;;3.00;3.00;;;;;17.88;62.79;101588.22;6244543;22;46034;-62
2021/08/26 03:59:41;;;;;;;;;3.50;3.25;;;;;17.86;62.80;101596.34;6244321;22;45111;-62
2021/08/26 04:02:07;;;;;;;;;3.25;2.00;;;;;17.84;62.90;101591.09;6242463;22;45257;-62
2021/08/26 04:04:32;;;;;;;;;5.00;4.00;;;;;17.81;62.53;101596.69;6243973;22;45510;-63
2021/08/26 04:06:58;;;;;;;;;5.00;3.00;;;;;17.79;62.50;101589.78;6244246;22;46043;-62
2021/08/26 04:09:23;;;;;;;;;6.25;4.00;;;;;17.77;62.73;101595.22;6244341;22;45221;-62
2021/08/26 04:11:49;;;;;;;;;5.00;5.00;;;;;17.77;62.78;101595.22;6244293;22;45202;-62
2021/08/26 04:14:14;;;;;;;;;3.00;3.00;;;;;17.77;62.98;101594.34;6244385;22;45342;-62
2021/08/26 04:16:40;;;;;;;;;4.25;3.50;;;;;17.77;62.69;101603.22;6244231;22;46048;-62
2021/08/26 04:19:05;;;;;;;;;1.00;1.00;;;;;17.76;62.42;101596.16;6243550;22;45219;-62
2021/08/26 04:21:32;;;;;;;;;2.25;2.00;;;;;17.74;62.92;101603.44;6244357;22;45142;-62
2021/08/26 04:23:58;;;;;;;;;2.00;2.00;;;;;17.75;62.65;101599.78;6243917;22;45244;-62
2021/08/26 04:26:24;;;;;;;;;3.00;2.50;;;;;17.78;62.64;101596.06;6243316;22;46053;-62
2021/08/26 04:28:49;;;;;;;;;2.75;2.00;;;;;17.80;62.83;101599.47;6244222;22;45331;-62
2021/08/26 04:31:15;;;;;;;;;5.00;3.00;;;;;17.83;62.97;101602.72;6244498;22;45292;-62
2021/08/26 04:33:40;;;;;;;;;2.75;2.75;;;;;17.82;62.78;101594.84;6243590;22;45141;-62
2021/08/26 04:36:06;;;;;;;;;4.25;3.00;;;;;17.81;62.51;101588.69;6243096;22;45352;-62
2021/08/26 04:38:32;;;;;;;;;1.75;1.75;;;;;17.80;62.79;101580.81;6243947;22;45267;-63
2021/08/26 04:40:57;;;;;;;;;12.25;7.00;;;;;17.87;62.57;101589.19;6244319;22;45145;-62
2021/08/26 04:43:22;;;;;;;;;4.25;4.25;;;;;17.88;62.75;101588.22;6243997;22;45270;-62
2021/08/26 04:45:48;;;;;;;;;3.75;3.00;;;;;17.85;62.72;101582.16;6243951;22;45206;-62
2021/08/26 04:48:13;;;;;;;;;5.50;3.75;;;;;17.83;62.89;101580.56;6243411;22;45166;-62
2021/08/26 04:50:39;;;;;;;;;3.50;2.00;;;;;17.78;63.07;101578.25;6244265;22;45338;-62
2021/08/26 04:53:04;;;;;;;;;5.00;3.00;;;;;17.75;62.82;101581.13;6243357;22;45379;-62
2021/08/26 04:55:30;;;;;;;;;3.25;3.00;;;;;17.75;63.13;101578.47;6243991;22;45861;-62
2021/08/26 04:57:55;;;;;;;;;3.50;2.75;;;;;17.74;62.93;101584.78;6243550;22;45157;-62
2021/08/26 05:00:21;;;;;;;;;3.25;3.25;;;;;17.75;62.98;101590.94;6244219;22;45103;-62
2021/08/26 05:02:46;;;;;;;;;6.00;3.00;;;;;17.75;63.19;101578.47;6244004;22;45126;-62
2021/08/26 05:05:12;;;;;;;;;4.50;3.50;;;;;17.76;63.08;101574.84;6242885;22;45330;-63
2021/08/26 05:07:37;;;;;;;;;3.50;3.50;;;;;17.80;63.10;101573.66;6243877;22;45382;-62
2021/08/26 05:10:04;;;;;;;;;3.00;3.00;;;;;17.80;62.87;101581.66;6244067;22;45284;-62
2021/08/26 05:12:30;;;;;;;;;2.00;2.00;;;;;17.84;63.25;101576.91;6243064;22;45174;-62
2021/08/26 05:14:56;;;;;;;;;3.00;3.00;;;;;17.86;63.24;101580.34;6243587;22;45299;-62
2021/08/26 05:17:22;;;;;;;;;4.50;4.00;;;;;17.86;63.53;101572.34;6243531;22;45190;-63
2021/08/26 05:19:47;;;;;;;;;3.00;3.00;;;;;17.87;63.06;101575.84;6242651;22;45238;-62
2021/08/26 05:22:13;;;;;;;;;2.00;2.00;;;;;17.84;63.18;101579.59;6243658;22;45421;-62
2021/08/26 05:24:38;;;;;;;;;2.75;2.25;;;;;17.79;63.50;101592.44;6243427;22;45791;-62
2021/08/26 05:27:04;;;;;;;;;2.00;2.00;;;;;17.75;63.30;101586.47;6243407;22;45155;-62
2021/08/26 05:29:29;;;;;;;;;3.50;3.50;;;;;17.75;63.49;101582.97;6243838;22;45296;-62
2021/08/26 05:31:55;;;;;;;;;6.25;4.00;;;;;17.77;63.64;101587.22;6243074;22;45478;-62
2021/08/26 05:34:20;;;;;;;;;4.00;4.00;;;;;17.79;63.57;101593.28;6242666;22;45912;-63
2021/08/26 05:36:45;;;;;;;;;2.75;2.00;;;;;17.78;63.56;101601.41;6243696;22;45154;-62
2021/08/26 05:39:11;;;;;;;;;8.00;4.00;;;;;17.79;63.83;101595.09;6243698;22;45084;-62
2021/08/26 05:41:36;;;;;;;;;3.50;3.00;;;;;17.79;63.79;101587.09;6242860;22;45285;-62
2021/08/26 05:44:02;;;;;;;;;3.50;2.75;;;;;17.80;63.92;101596.78;6243197;22;45474;-62
2021/08/26 05:46:28;;;;;;;;;6.50;2.25;;;;;17.81;64.10;101596.69;6243255;22;45433;-63
2021/08/26 05:48:53;;;;;;;;;3.25;2.50;;;;;17.82;63.97;101595.69;6243277;22;45244;-62
2021/08/26 05:51:19;;;;;;;;;6.00;4.75;;;;;17.84;63.79;101595.59;6243459;22;45228;-63
2021/08/26 05:53:45;;;;;;;;;2.50;2.00;;;;;17.85;64.09;101586.63;6242848;22;45315;-62
2021/08/26 05:56:10;;;;;;;;;1.00;1.00;;;;;17.93;64.02;101584.25;6243280;22;45303;-63
2021/08/26 05:58:36;;;;;;;;;4.00;3.00;;;;;17.95;63.93;101573.47;6243229;22;45302;-63
2021/08/26 06:01:01;;;;;;;;;8.50;4.00;;;;;17.93;63.87;101584.25;6243739;22;45462;-61
2021/08/26 06:03:27;;;;;;;;;7.25;2.00;;;;;17.95;63.79;101582.31;6241092;22;46145;-61
2021/08/26 06:05:53;;;;;;;;;4.50;3.00;;;;;17.94;63.74;101587.75;6243059;22;45168;-60
2021/08/26 06:08:18;;;;;;;;;6.25;4.75;;;;;17.94;64.01;101585.09;6243396;22;45145;-60
2021/08/26 06:10:44;;;;;;;;;2.00;2.00;;;;;17.97;63.95;101584.84;6243459;22;45213;-62
2021/08/26 06:13:09;;;;;;;;;6.75;3.75;;;;;18.00;63.87;101592.59;6242109;22;46089;-62
2021/08/26 06:15:35;;;;;;;;;8.50;3.00;;;;;18.04;63.87;101594.91;6242946;22;45780;-61
2021/08/26 06:18:01;;;;;;;;;2.75;2.00;;;;;18.05;63.54;101590.44;6242374;22;45277;-62
2021/08/26 06:20:26;;;;;;;;;2.75;1.50;;;;;18.10;63.66;101593.59;6242787;22;45252;-62
2021/08/26 06:22:52;;;;;;;;;2.25;2.25;;;;;18.12;63.95;101592.50;6242173;22;45316;-62
2021/08/26 06:25:17;;;;;;;;;4.25;3.75;;;;;18.17;63.90;101589.50;6242900;22;45240;-62
2021/08/26 06:27:43;;;;;;;;;4.00;3.00;;;;;18.23;63.56;101591.66;6242747;22;45380;-62
2021/08/26 06:30:11;;;;;;;;;4.50;3.00;;;;;18.29;63.82;101590.34;6243041;22;45237;-63
2021/08/26 06:32:37;;;;;;;;;2.00;2.00;;;;;18.31;63.55;101583.06;6241937;22;45345;-63
2021/08/26 06:35:04;;;;;;;;;2.25;2.00;;;;;18.34;63.58;101597.03;6242293;22;45307;-64
2021/08/26 06:37:30;;;;;;;;;13.50;11.25;;;;;18.34;63.61;101589.03;6242516;22;45144;-62
2021/08/26 06:39:58;;;;;;;;;5.50;3.00;;;;;18.36;63.89;101591.56;6243096;22;45253;-62
2021/08/26 06:42:24;;;;;;;;;5.25;3.00;;;;;18.37;64.12;101588.78;6242363;22;45845;-64
2021/08/26 06:44:49;;;;;;;;;5.00;3.00;;;;;18.39;63.96;101586.81;6242628;22;45255;-64
2021/08/26 06:47:16;;;;;;;;;2.00;2.00;;;;;18.42;64.08;101586.59;6242459;22;45374;-64
2021/08/26 06:49:42;;;;;;;;;3.00;3.00;;;;;18.47;64.21;101591.56;6242615;22;45256;-64
2021/08/26 06:52:07;;;;;;;;;5.00;3.75;;;;;18.49;64.05;101586.97;6242645;22;45209;-65
2021/08/26 06:54:33;;;;;;;;;4.00;4.00;;;;;18.51;64.03;101592.19;6242934;22;45229;-65
2021/08/26 06:56:58;;;;;;;;;5.25;3.00;;;;;18.52;63.80;101588.53;6243171;22;45355;-64
2021/08/26 06:59:24;;;;;;;;;5.75;3.00;;;;;18.50;64.22;101579.81;6243215;22;45186;-64
2021/08/26 07:01:49;;;;;;;;;6.25;6.25;;;;;18.53;63.71;101582.22;6242224;22;45383;-64
2021/08/26 07:04:15;;;;;;;;;4.00;3.25;;;;;18.60;63.95;101586.09;6242458;22;45217;-64
2021/08/26 07:06:40;;;;;;;;;6.00;5.00;;;;;18.64;64.20;101591.09;6243193;22;45233;-65
2021/08/26 07:09:06;;;;;;;;;4.75;4.00;;;;;18.67;63.77;101590.03;6243256;22;45363;-65
2021/08/26 07:11:31;;;;;;;;;6.25;4.75;;;;;18.71;64.17;101598.63;6242496;22;45721;-64
2021/08/26 07:13:57;;;;;;;;;5.00;3.00;;;;;18.78;64.33;101589.16;6242826;22;45360;-64
2021/08/26 07:16:22;;;;;;;;;4.50;4.50;;;;;18.81;63.80;101575.56;6243834;22;45217;-64
2021/08/26 07:18:48;;;;;;;;;6.00;4.50;;;;;18.78;64.15;101581.16;6244638;22;45209;-64
2021/08/26 07:21:13;;;;;;;;;7.50;6.00;;;;;18.79;64.00;101580.16;6244505;22;45349;-64
2021/08/26 07:23:39;;;;;;;;;10.00;5.75;;;;;18.78;64.44;101579.31;6242522;22;45163;-64
2021/08/26 07:26:04;;;;;;;;;6.00;5.00;;;;;18.80;63.88;101574.72;6244488;22;45287;-65
2021/08/26 07:28:30;;;;;;;;;5.50;3.75;;;;;18.80;63.64;101573.84;6244723;22;45256;-64
2021/08/26 07:30:56;;;;;;;;;9.75;4.00;;;;;18.78;64.12;101576.66;6244317;22;45309;-66
2021/08/26 07:33:22;;;;;;;;;5.00;3.25;;;;;18.79;64.17;101574.81;6244435;22;45182;-63
2021/08/26 07:35:48;;;;;;;;;5.00;4.25;;;;;18.78;63.82;101575.81;6243874;22;45265;-64
2021/08/26 07:38:13;;;;;;;;;10.00;4.50;;;;;18.76;64.32;101565.25;6243367;22;45366;-64
2021/08/26 07:40:39;;;;;;;;;9.00;5.75;;;;;18.81;64.24;101571.09;6243155;22;46107;-64
2021/08/26 07:43:04;;;;;;;;;10.25;6.25;;;;;18.83;64.32;101573.63;6244372;22;45095;-64
2021/08/26 07:45:30;;;;;;;;;7.75;6.75;;;;;18.84;64.27;101570.81;6242617;22;45182;-64
2021/08/26 07:47:55;;;;;;;;;6.50;6.50;;;;;18.90;64.36;101577.50;6244593;22;45169;-64
2021/08/26 07:50:21;;;;;;;;;7.50;6.00;;;;;18.93;63.98;101580.75;6244489;22;45189;-63
2021/08/26 07:52:47;;;;;;;;;8.00;7.00;;;;;18.97;64.36;101584.03;6244532;22;45191;-64
2021/08/26 07:55:13;;;;;;;;;9.25;8.25;;;;;19.03;64.21;101590.69;6244605;22;45272;-64
2021/08/26 07:57:38;;;;;;;;;6.00;6.00;;;;;19.09;64.16;101580.34;6244706;22;45418;-63
2021/08/26 08:00:05;;;;;;;;;6.00;6.00;;;;;19.07;63.79;101584.97;6244318;22;45994;-64
2021/08/26 08:02:31;;;;;;;;;7.25;6.50;;;;;19.05;63.86;101586.94;6242158;22;45288;-64
2021/08/26 08:04:56;;;;;;;;;7.00;6.00;;;;;19.04;64.02;101579.91;6244090;22;45391;-64
2021/08/26 08:07:22;;;;;;;;;7.00;5.75;;;;;19.08;64.32;101585.81;6242595;22;45233;-63
2021/08/26 08:09:48;;;;;;;;;8.75;8.00;;;;;19.11;64.04;101589.09;6244301;22;46290;-63
2021/08/26 08:12:14;;;;;;;;;10.00;8.00;;;;;19.14;63.89;101586.19;6244201;22;45222;-64
2021/08/26 08:14:42;;;;;;;;;7.50;4.25;;;;;19.16;63.84;101586.03;6244248;22;45183;-63
2021/08/26 08:17:08;;;;;;;;;7.00;6.25;;;;;19.19;64.21;101583.97;6244232;22;45260;-63
2021/08/26 08:19:33;;;;;;;;;8.00;6.00;;;;;19.25;63.90;101580.78;6243541;22;45228;-63
2021/08/26 08:21:59;;;;;;;;;7.75;7.75;;;;;19.31;64.08;101583.94;6244012;22;45294;-63
2021/08/26 08:24:25;;;;;;;;;6.75;6.75;;;;;19.39;63.53;101581.47;6244226;22;45457;-64
2021/08/26 08:26:51;;;;;;;;;6.00;6.00;;;;;19.41;63.66;101584.88;6242230;22;45324;-64
2021/08/26 08:29:16;;;;;;;;;7.75;5.50;;;;;19.42;64.05;101586.56;6244239;22;45173;-64
2021/08/26 08:31:42;;;;;;;;;8.00;5.00;;;;;19.41;64.00;101588.38;6244438;22;45142;-64
2021/08/26 08:34:07;;;;;;;;;6.75;4.75;;;;;19.36;63.87;101579.06;6243957;22;45214;-64
2021/08/26 08:36:33;;;;;;;;;16.00;7.00;;;;;19.40;64.07;101581.34;6244216;22;45154;-64
2021/08/26 08:38:58;;;;;;;;;7.00;6.00;;;;;19.46;63.96;101577.31;6244235;22;45165;-64
2021/08/26 08:41:24;;;;;;;;;5.25;5.00;;;;;19.52;63.63;101579.50;6244203;22;45101;-64
2021/08/26 08:43:49;;;;;;;;;9.50;6.25;;;;;19.57;64.26;101574.63;6244362;22;45429;-64
2021/08/26 08:46:19;;;;;;;;;6.75;3.50;;;;;19.61;63.86;101576.06;6244422;22;45238;-64
2021/08/26 08:48:45;;;;;;;;;5.25;5.00;;;;;19.64;64.07;101582.97;6243217;22;45259;-64
2021/08/26 08:51:11;;;;;;;;;7.75;5.50;;;;;19.68;63.95;101579.94;6243871;22;45257;-64
2021/08/26 08:53:37;;;;;;;;;7.50;5.00;;;;;19.71;64.00;101589.50;6243805;22;45411;-65
2021/08/26 08:56:05;;;;;;;;;4.50;3.00;;;;;19.72;64.30;101585.84;6244392;22;45137;-64
2021/08/26 08:58:38;;;;;;;;;11.50;7.25;;;;;19.74;64.09;101578.53;6243633;22;46030;-64
2021/08/26 09:01:04;;;;;;;;;3.75;3.75;;;;;19.76;64.04;101584.63;6267729;22;45177;-64
2021/08/26 09:03:30;;;;;;;;;3.75;3.00;;;;;19.82;64.45;101577.91;6243074;22;45252;-64
2021/08/26 09:05:58;;;;;;;;;4.00;3.25;;;;;19.85;64.13;101575.81;6243674;22;45405;-64
2021/08/26 09:08:27;;;;;;;;;4.50;3.00;;;;;19.86;64.51;101572.16;6243709;22;45367;-64
2021/08/26 09:11:07;;;;;;;;;3.25;3.25;;;;;19.88;64.60;101578.22;6243758;22;45154;-64
2021/08/26 09:13:34;;;;;;;;;2.75;2.00;;;;;19.91;64.46;101571.78;6241857;22;45316;-64
2021/08/26 09:16:01;;;;;;;;;3.25;2.50;;;;;19.92;64.61;101576.16;6243860;22;45231;-64
2021/08/26 09:18:26;;;;;;;;;3.00;3.00;;;;;19.95;64.83;101576.72;6243506;22;45264;-64
2021/08/26 09:20:56;;;;;;;;;5.00;2.75;;;;;20.01;64.42;101576.22;6267175;22;45229;-64
2021/08/26 09:23:24;;;;;;;;;1.00;1.00;;;;;20.04;64.51;101570.59;6244044;22;45173;-64
2021/08/26 09:25:50;;;;;;;;;1.00;1.00;;;;;20.11;64.09;101578.94;6243515;22;45388;-64
2021/08/26 09:28:29;;;;;;;;;3.50;2.50;;;;;20.17;63.93;101573.06;6243377;22;46564;-64
2021/08/26 09:31:12;;;;;;;;;5.25;3.50;;;;;20.22;64.55;101568.19;6243976;22;45205;-64
2021/08/26 09:33:46;;;;;;;;;6.50;4.50;;;;;20.28;64.34;101572.13;6243283;22;45099;-64
2021/08/26 09:36:21;;;;;;;;;3.00;3.00;;;;;20.30;64.01;101568.34;6243758;22;45491;-64
2021/08/26 09:38:56;;;;;;;;;3.75;3.75;;;;;20.38;63.77;101569.47;6243371;22;45284;-64
2021/08/26 09:41:48;;;;;;;;;5.25;4.00;;;;;20.45;63.80;101576.03;6243160;22;45099;-64
2021/08/26 09:44:28;;;;;;;;;4.00;2.75;;;;;20.50;63.81;101568.44;6243705;22;45304;-64
2021/08/26 09:46:59;;;;;;;;;2.50;2.00;;;;;20.59;63.86;101568.47;6243643;22;45474;-64
2021/08/26 09:49:27;;;;;;;;;5.00;5.00;;;;;20.67;63.26;101556.25;6243133;22;45283;-64
2021/08/26 09:52:13;;;;;;;;;4.00;2.00;;;;;20.73;63.23;101567.28;6242983;22;45265;-64
2021/08/26 09:54:47;;;;;;;;;2.00;1.75;;;;;20.75;63.00;101565.28;6243583;22;45225;-64
2021/08/26 09:57:23;;;;;;;;;2.50;2.00;;;;;20.81;63.49;101562.06;6243243;22;45172;-64
2021/08/26 09:59:54;;;;;;;;;2.50;2.00;;;;;20.90;63.41;101555.88;6243166;22;46553;-64
2021/08/26 10:02:20;;;;;;;;;5.00;3.00;;;;;20.99;62.95;101562.25;6242945;22;45248;-64
2021/08/26 10:04:47;;;;;;;;;1.00;1.00;;;;;21.08;62.79;101563.25;6242994;22;45241;-64
2021/08/26 10:07:15;;;;;;;;;2.00;1.00;;;;;21.14;62.85;101554.66;6243561;22;45171;-64
2021/08/26 10:09:42;;;;;;;;;0.25;0.25;;;;;21.23;62.11;101567.22;6243262;22;46515;-64
2021/08/26 10:12:12;;;;;;;;;3.25;1.00;;;;;21.30;62.32;101554.97;6242859;22;45292;-65
2021/08/26 10:14:43;;;;;;;;;0.00;0.00;;;;;21.39;61.61;101547.91;6243485;22;45147;-64
2021/08/26 10:17:09;;;;;;;;;0.75;0.00;;;;;21.41;61.46;101545.97;6243480;22;45348;-64
2021/08/26 10:19:36;;;;;;;;;1.00;1.00;;;;;21.46;61.54;101538.31;6242696;22;45918;-65
2021/08/26 10:22:03;;;;;;;;;2.25;1.50;;;;;21.61;61.29;101544.94;6243144;22;45252;-64
2021/08/26 10:24:29;;;;;;;;;1.00;1.00;;;;;21.75;61.09;101551.72;6243560;22;45153;-64
2021/08/26 10:27:00;;;;;;;;;5.00;5.00;;;;;21.77;61.03;101549.72;6243428;22;45550;-64
2021/08/26 10:29:26;;;;;;;;;4.25;4.00;;;;;21.80;60.96;101551.25;6242914;22;46188;-64
2021/08/26 10:32:02;;;;;;;;;1.50;1.50;;;;;21.81;60.77;101543.09;6242347;22;45305;-64
2021/08/26 10:34:31;;;;;;;;;3.25;1.00;;;;;21.88;60.35;101548.72;6242659;22;45170;-64
2021/08/26 10:36:57;;;;;;;;;0.50;0.50;;;;;21.93;60.43;101552.66;6243267;22;45365;-63
2021/08/26 10:39:32;;;;;;;;;3.00;2.25;;;;;21.99;60.49;101551.25;6243161;22;45288;-64
2021/08/26 10:42:18;;;;;;;;;7.25;5.75;;;;;21.95;60.43;101549.81;6242592;22;45359;-64
2021/08/26 10:45:04;;;;;;;;;4.00;4.00;;;;;21.92;60.17;101559.00;6242192;22;45410;-64
2021/08/26 10:47:57;;;;;;;;;1.00;1.00;;;;;21.77;59.84;101586.44;6243366;22;45361;-63
2021/08/26 10:50:37;;;;;;;;;2.00;2.00;;;;;21.43;60.28;101578.84;6243823;22;46014;-64
2021/08/26 10:53:08;;;;;;;;;3.50;2.00;;;;;21.17;61.22;101579.34;6242868;22;45411;-63
2021/08/26 10:55:51;;;;;;;;;22.50;16.50;;;;;21.05;60.98;101574.25;6244391;22;45236;-63
2021/08/26 10:58:26;;;;;;;;;3.00;2.00;;;;;20.84;61.23;101583.22;6245096;22;45147;-63
2021/08/26 11:00:54;;;;;;;;;4.50;3.50;;;;;20.70;61.67;101588.97;6244791;22;45142;-64
2021/08/26 11:03:32;;;;;;;;;5.00;3.00;;;;;20.56;62.00;101578.63;6242116;22;45248;-64
2021/08/26 11:05:59;;;;;;;;;5.75;2.75;;;;;20.52;62.07;101579.88;6245032;22;45418;-63
2021/08/26 11:08:29;;;;;;;;;4.25;3.00;;;;;20.49;62.27;101572.97;6245043;22;45134;-63
2021/08/26 11:10:56;;;;;;;;;5.00;4.00;;;;;20.53;62.20;101576.19;6244728;22;45244;-64
2021/08/26 11:13:32;;;;;;;;;3.00;3.00;;;;;20.60;62.63;101575.53;6244591;22;45232;-64
2021/08/26 11:16:24;;;;;;;;;6.75;4.00;;;;;20.68;62.56;101566.81;6245162;22;45161;-64
2021/08/26 11:18:59;;;;;;;;;4.00;4.00;;;;;20.87;62.61;101558.84;6244279;22;45333;-64
2021/08/26 11:24:14;;;;;;;;;10.50;6.25;;;;;21.28;62.10;101558.78;6244906;22;45271;-64
2021/08/26 11:27:00;;;;;;;;;4.25;3.50;;;;;21.33;62.14;101559.19;6245068;22;45300;-64
2021/08/26 11:29:26;;;;;;;;;5.75;4.75;;;;;21.40;61.94;101554.97;6245002;22;45111;-64
2021/08/26 11:31:54;;;;;;;;;4.25;4.00;;;;;21.44;61.46;101559.06;6244153;22;45292;-64